ADDS METAR Data INFO
IDs: Format: Raw Decoded Include TAF

Data at: 1049 UTC 19 Oct 2017

KAAT 190955Z AUTO 00000KT 10SM CLR M02/M09 A2998 RMK AO2 SLP134 T10221089
KAAT 190855Z AUTO 00000KT 10SM CLR M01/M08 A2999 RMK AO2 SLP137 T10111078 55006
KAAT 190755Z AUTO 16004KT 10SM CLR 05/M06 A2999 RMK AO2 SLP128 T00501056 402441044
KAAT 190655Z AUTO 14006KT 10SM CLR 07/M06 A3000 RMK AO2 SLP132 T00671061
KAAT 190555Z AUTO 00000KT 10SM CLR 04/M07 A3001 RMK AO2 SLP149 T00441072 10222 20044 50000
KAAT 190455Z AUTO 17003KT 10SM CLR 09/M08 A3001 RMK AO2 SLP148 T00891078
KAAT 190355Z AUTO 00000KT 10SM CLR 08/M07 A3001 RMK AO2 SLP160 T00781072
KAAT 190255Z AUTO 00000KT 10SM CLR 11/M07 A3001 RMK AO2 SLP163 T01111072 55006
KAAT 190155Z AUTO 13005KT 10SM CLR 14/M08 A3001 RMK AO2 SLP160 T01441078
KAAT 190055Z AUTO 25009KT 10SM CLR 19/M09 A3001 RMK AO2 SLP151 T01941089
KAAT 182355Z AUTO 28012KT 10SM CLR 22/M09 A3003 RMK AO2 SLP153 T02221094 10244 20144 56011
KAAT 182255Z AUTO 28014KT 10SM CLR 23/M08 A3004 RMK AO2 SLP154 T02331083
KAAT 182155Z AUTO 25005G17KT 10SM CLR 24/M09 A3005 RMK AO2 SLP155 T02441089
KAAT 182055Z AUTO 26013KT 10SM CLR 23/M09 A3007 RMK AO2 SLP163 T02331089 56025
KAAT 181955Z AUTO 27007KT 6SM HZ CLR 23/M07 A3010 RMK AO2 SLP171 T02281067
KAAT 181855Z AUTO VRB03KT 8SM CLR 21/M06 A3012 RMK AO2 SLP180 T02061056
KAAT 181755Z AUTO 00000KT 10SM CLR 14/M05 A3015 RMK AO2 SLP200 T01441050 10144 21044 58006
KAAT 181655Z AUTO 00000KT 10SM CLR 11/M06 A3017 RMK AO2 SLP210 T01061056
KAAT 181555Z AUTO 00000KT 8SM CLR 04/M07 A3018 RMK AO2 SLP217 T00391067
KAAT 181455Z AUTO 00000KT 7SM CLR M02/M08 A3017 RMK AO2 SLP217 T10221078 55001
KAAT 181355Z AUTO 00000KT 10SM CLR M03/M08 A3017 RMK AO2 SLP217 T10331083
KAAT 181255Z AUTO 00000KT 10SM CLR M02/M08 A3018 RMK AO2 SLP206 T10171078
KAAT 181155Z AUTO 00000KT 10SM CLR M02/M07 A3018 RMK AO2 SLP204 T10171072 10044 21033 56012
KAAT 181055Z AUTO 00000KT 10SM CLR M01/M07 A3019 RMK AO2 SLP206 T10061072
KAAT 180955Z AUTO 00000KT 10SM CLR M01/M08 A3020 RMK AO2 SLP211 T10111078
KAAT 180855Z AUTO 00000KT 10SM CLR M01/M07 A3022 RMK AO2 SLP216 T10061072 53001
KAAT 180755Z AUTO 00000KT 10SM CLR 01/M07 A3021 RMK AO2 SLP212 T00111072 402331039
KAAT 180655Z AUTO 00000KT 8SM CLR 04/M06 A3021 RMK AO2 SLP211 T00391061
KAAT 180555Z AUTO 00000KT 10SM CLR 03/M07 A3021 RMK AO2 SLP222 T00281067 10222 20028 51011
KAAT 180455Z AUTO 00000KT 10SM CLR 04/M05 A3021 RMK AO2 SLP225 T00441050
KAAT 180355Z AUTO 00000KT 10SM CLR 08/M03 A3019 RMK AO2 SLP220 T00831033
KAAT 180255Z AUTO 00000KT 10SM CLR 13/M06 A3017 RMK AO2 SLP218 T01281056 53006
KAAT 180155Z AUTO 00000KT 10SM CLR 14/M07 A3016 RMK AO2 SLP212 T01391072
KAAT 180055Z AUTO 02005KT 10SM CLR 20/M07 A3014 RMK AO2 SLP194 T02001072
KAAT 172355Z AUTO 30007KT 5SM HZ CLR 22/M08 A3015 RMK AO2 SLP192 T02221078 10233 20139 56009
KAAT 172255Z AUTO 27005KT 10SM CLR 23/M08 A3016 RMK AO2 SLP193 T02281083